sensor_id;sensor_type;location;lat;lon;timestamp;pressure;altitude;pressure_sealevel;temperature;humidity
8280;BME280;8335;42.646;23.380;2022-12-15T00:02:28;93499.16;;;2.15;100.00
8280;BME280;8335;42.646;23.380;2022-12-15T00:05:12;93500.06;;;2.12;100.00
8280;BME280;8335;42.646;23.380;2022-12-15T00:08:04;93472.38;;;2.15;100.00
8280;BME280;8335;42.646;23.380;2022-12-15T00:10:49;93473.25;;;2.14;100.00
8280;BME280;8335;42.646;23.380;2022-12-15T00:13:32;93497.94;;;2.02;100.00
8280;BME280;8335;42.646;23.380;2022-12-15T00:16:18;93484.72;;;1.97;100.00
8280;BME280;8335;42.646;23.380;2022-12-15T00:19:02;93508.06;;;2.00;100.00
8280;BME280;8335;42.646;23.380;2022-12-15T00:21:47;93516.34;;;2.02;100.00
8280;BME280;8335;42.646;23.380;2022-12-15T00:24:31;93523.13;;;2.00;100.00
8280;BME280;8335;42.646;23.380;2022-12-15T00:27:14;93534.00;;;1.99;100.00
8280;BME280;8335;42.646;23.380;2022-12-15T00:29:58;93563.66;;;2.13;100.00
8280;BME280;8335;42.646;23.380;2022-12-15T00:32:44;93583.75;;;2.13;100.00
8280;BME280;8335;42.646;23.380;2022-12-15T00:35:28;93589.59;;;2.13;100.00
8280;BME280;8335;42.646;23.380;2022-12-15T00:38:14;93586.25;;;2.13;100.00
8280;BME280;8335;42.646;23.380;2022-12-15T00:40:58;93586.06;;;2.19;100.00
8280;BME280;8335;42.646;23.380;2022-12-15T00:43:25;93586.00;;;2.20;100.00
8280;BME280;8335;42.646;23.380;2022-12-15T00:45:52;93565.75;;;2.25;100.00
8280;BME280;8335;42.646;23.380;2022-12-15T00:48:37;93521.97;;;2.09;100.00
8280;BME280;8335;42.646;23.380;2022-12-15T00:51:04;93557.28;;;2.28;100.00
8280;BME280;8335;42.646;23.380;2022-12-15T00:53:30;93546.41;;;2.27;100.00
8280;BME280;8335;42.646;23.380;2022-12-15T00:56:14;93523.81;;;2.27;100.00
8280;BME280;8335;42.646;23.380;2022-12-15T00:58:58;93521.53;;;2.21;100.00
8280;BME280;8335;42.646;23.380;2022-12-15T01:01:42;93534.66;;;2.29;100.00
8280;BME280;8335;42.646;23.380;2022-12-15T01:04:28;93533.88;;;2.27;100.00
8280;BME280;8335;42.646;23.380;2022-12-15T01:07:12;93528.81;;;2.29;100.00
8280;BME280;8335;42.646;23.380;2022-12-15T01:09:57;93502.53;;;2.14;100.00
8280;BME280;8335;42.646;23.380;2022-12-15T01:12:41;93532.78;;;2.34;100.00
8280;BME280;8335;42.646;23.380;2022-12-15T01:15:25;93495.56;;;2.22;100.00
8280;BME280;8335;42.646;23.380;2022-12-15T01:18:09;93487.38;;;2.17;100.00
8280;BME280;8335;42.646;23.380;2022-12-15T01:20:56;93517.16;;;2.03;100.00
8280;BME280;8335;42.646;23.380;2022-12-15T01:23:23;93489.81;;;1.95;100.00
8280;BME280;8335;42.646;23.380;2022-12-15T01:25:49;93500.88;;;1.89;100.00
8280;BME280;8335;42.646;23.380;2022-12-15T01:28:16;93514.09;;;1.70;100.00
8280;BME280;8335;42.646;23.380;2022-12-15T01:30:44;93476.03;;;1.57;100.00
8280;BME280;8335;42.646;23.380;2022-12-15T01:33:11;93498.06;;;1.74;100.00
8280;BME280;8335;42.646;23.380;2022-12-15T01:35:38;93522.25;;;1.76;100.00
8280;BME280;8335;42.646;23.380;2022-12-15T01:38:06;93501.19;;;1.80;100.00
8280;BME280;8335;42.646;23.380;2022-12-15T01:40:34;93516.41;;;1.76;100.00
8280;BME280;8335;42.646;23.380;2022-12-15T01:43:13;93511.13;;;1.83;100.00
8280;BME280;8335;42.646;23.380;2022-12-15T01:45:50;93458.91;;;1.70;100.00
8280;BME280;8335;42.646;23.380;2022-12-15T01:48:22;93468.25;;;1.89;100.00
8280;BME280;8335;42.646;23.380;2022-12-15T01:50:56;93486.31;;;1.99;100.00
8280;BME280;8335;42.646;23.380;2022-12-15T01:53:26;93493.09;;;1.97;100.00
8280;BME280;8335;42.646;23.380;2022-12-15T01:55:54;93459.84;;;1.90;100.00
8280;BME280;8335;42.646;23.380;2022-12-15T01:58:21;93468.56;;;1.80;100.00
8280;BME280;8335;42.646;23.380;2022-12-15T02:00:48;93480.19;;;1.83;100.00
8280;BME280;8335;42.646;23.380;2022-12-15T02:03:15;93450.13;;;1.81;100.00
8280;BME280;8335;42.646;23.380;2022-12-15T02:05:42;93446.53;;;1.88;100.00
8280;BME280;8335;42.646;23.380;2022-12-15T02:08:10;93477.22;;;1.97;100.00
8280;BME280;8335;42.646;23.380;2022-12-15T02:10:50;93423.75;;;1.95;100.00
8280;BME280;8335;42.646;23.380;2022-12-15T02:13:27;93412.09;;;1.92;100.00
8280;BME280;8335;42.646;23.380;2022-12-15T02:16:01;93468.31;;;1.88;100.00
8280;BME280;8335;42.646;23.380;2022-12-15T02:18:35;93379.53;;;1.90;100.00
8280;BME280;8335;42.646;23.380;2022-12-15T02:21:09;93429.94;;;1.84;100.00
8280;BME280;8335;42.646;23.380;2022-12-15T02:24:08;93418.34;;;1.82;100.00
8280;BME280;8335;42.646;23.380;2022-12-15T02:27:19;93409.59;;;1.92;100.00
8280;BME280;8335;42.646;23.380;2022-12-15T02:33:02;93375.00;;;2.00;100.00
8280;BME280;8335;42.646;23.380;2022-12-15T02:35:51;93389.94;;;2.03;100.00
8280;BME280;8335;42.646;23.380;2022-12-15T02:38:30;93383.94;;;2.07;100.00
8280;BME280;8335;42.646;23.380;2022-12-15T02:40:58;93402.06;;;2.15;100.00
8280;BME280;8335;42.646;23.380;2022-12-15T02:43:26;93386.13;;;2.16;100.00
8280;BME280;8335;42.646;23.380;2022-12-15T02:46:01;93397.53;;;2.02;100.00
8280;BME280;8335;42.646;23.380;2022-12-15T02:48:39;93403.31;;;2.04;100.00
8280;BME280;8335;42.646;23.380;2022-12-15T02:51:22;93409.88;;;2.08;100.00
8280;BME280;8335;42.646;23.380;2022-12-15T02:54:22;93416.41;;;2.12;100.00
8280;BME280;8335;42.646;23.380;2022-12-15T02:56:59;93446.59;;;2.10;100.00
8280;BME280;8335;42.646;23.380;2022-12-15T02:59:36;93439.00;;;2.12;100.00
8280;BME280;8335;42.646;23.380;2022-12-15T03:02:06;93451.88;;;2.03;100.00
8280;BME280;8335;42.646;23.380;2022-12-15T03:04:36;93428.25;;;2.08;100.00
8280;BME280;8335;42.646;23.380;2022-12-15T03:07:05;93422.75;;;1.99;100.00
8280;BME280;8335;42.646;23.380;2022-12-15T03:09:33;93447.81;;;2.00;100.00
8280;BME280;8335;42.646;23.380;2022-12-15T03:12:00;93441.09;;;2.01;100.00
8280;BME280;8335;42.646;23.380;2022-12-15T03:14:27;93420.75;;;2.07;100.00
8280;BME280;8335;42.646;23.380;2022-12-15T03:16:54;93427.59;;;2.03;100.00
8280;BME280;8335;42.646;23.380;2022-12-15T03:19:21;93432.47;;;2.08;100.00
8280;BME280;8335;42.646;23.380;2022-12-15T03:21:49;93431.59;;;2.09;100.00
8280;BME280;8335;42.646;23.380;2022-12-15T03:24:16;93424.75;;;2.12;100.00
8280;BME280;8335;42.646;23.380;2022-12-15T03:26:42;93426.50;;;2.10;100.00
8280;BME280;8335;42.646;23.380;2022-12-15T03:29:12;93432.34;;;2.11;100.00
8280;BME280;8335;42.646;23.380;2022-12-15T03:31:39;93414.16;;;2.04;100.00
8280;BME280;8335;42.646;23.380;2022-12-15T03:34:06;93442.38;;;2.11;100.00
8280;BME280;8335;42.646;23.380;2022-12-15T03:36:33;93426.28;;;2.16;100.00
8280;BME280;8335;42.646;23.380;2022-12-15T03:39:01;93421.59;;;2.07;100.00
8280;BME280;8335;42.646;23.380;2022-12-15T03:41:28;93428.91;;;2.13;100.00
8280;BME280;8335;42.646;23.380;2022-12-15T03:43:55;93425.69;;;2.10;100.00
8280;BME280;8335;42.646;23.380;2022-12-15T03:46:21;93436.75;;;2.04;100.00
8280;BME280;8335;42.646;23.380;2022-12-15T03:48:48;93421.03;;;1.99;100.00
8280;BME280;8335;42.646;23.380;2022-12-15T03:51:15;93432.84;;;1.97;100.00
8280;BME280;8335;42.646;23.380;2022-12-15T03:53:42;93452.50;;;2.09;100.00
8280;BME280;8335;42.646;23.380;2022-12-15T03:56:10;93465.91;;;2.08;100.00
8280;BME280;8335;42.646;23.380;2022-12-15T03:58:36;93460.91;;;2.08;100.00
8280;BME280;8335;42.646;23.380;2022-12-15T04:01:09;93463.28;;;2.11;100.00
8280;BME280;8335;42.646;23.380;2022-12-15T04:03:36;93461.66;;;2.10;100.00
8280;BME280;8335;42.646;23.380;2022-12-15T04:06:04;93478.75;;;2.01;100.00
8280;BME280;8335;42.646;23.380;2022-12-15T04:08:30;93482.44;;;1.90;100.00
8280;BME280;8335;42.646;23.380;2022-12-15T04:10:57;93474.84;;;1.92;100.00
8280;BME280;8335;42.646;23.380;2022-12-15T04:13:25;93506.56;;;1.95;100.00
8280;BME280;8335;42.646;23.380;2022-12-15T04:15:52;93493.84;;;1.99;100.00
8280;BME280;8335;42.646;23.380;2022-12-15T04:18:19;93511.25;;;2.04;100.00
8280;BME280;8335;42.646;23.380;2022-12-15T04:20:45;93511.88;;;2.10;100.00
8280;BME280;8335;42.646;23.380;2022-12-15T04:23:12;93510.03;;;2.15;100.00
8280;BME280;8335;42.646;23.380;2022-12-15T04:25:39;93507.50;;;2.15;100.00
8280;BME280;8335;42.646;23.380;2022-12-15T04:28:24;93499.59;;;2.26;100.00
8280;BME280;8335;42.646;23.380;2022-12-15T04:31:11;93493.47;;;2.33;100.00
8280;BME280;8335;42.646;23.380;2022-12-15T04:33:57;93474.47;;;2.26;100.00
8280;BME280;8335;42.646;23.380;2022-12-15T04:36:44;93496.41;;;2.44;100.00
8280;BME280;8335;42.646;23.380;2022-12-15T04:39:29;93489.50;;;2.49;100.00
8280;BME280;8335;42.646;23.380;2022-12-15T04:42:14;93488.00;;;2.45;100.00
8280;BME280;8335;42.646;23.380;2022-12-15T04:45:02;93482.97;;;2.45;100.00
8280;BME280;8335;42.646;23.380;2022-12-15T04:47:46;93462.97;;;2.42;100.00
8280;BME280;8335;42.646;23.380;2022-12-15T04:50:31;93468.38;;;2.55;100.00
8280;BME280;8335;42.646;23.380;2022-12-15T04:53:17;93475.16;;;2.53;100.00
8280;BME280;8335;42.646;23.380;2022-12-15T04:56:02;93486.91;;;2.53;100.00
8280;BME280;8335;42.646;23.380;2022-12-15T04:58:46;93468.59;;;2.49;100.00
8280;BME280;8335;42.646;23.380;2022-12-15T05:01:33;93490.03;;;2.36;100.00
8280;BME280;8335;42.646;23.380;2022-12-15T05:04:18;93485.41;;;2.25;100.00
8280;BME280;8335;42.646;23.380;2022-12-15T05:07:02;93509.63;;;2.26;100.00
8280;BME280;8335;42.646;23.380;2022-12-15T05:09:47;93504.72;;;2.23;100.00
8280;BME280;8335;42.646;23.380;2022-12-15T05:12:31;93527.59;;;2.39;100.00
8280;BME280;8335;42.646;23.380;2022-12-15T05:15:15;93528.06;;;2.48;100.00
8280;BME280;8335;42.646;23.380;2022-12-15T05:18:00;93543.00;;;2.53;100.00
8280;BME280;8335;42.646;23.380;2022-12-15T05:20:45;93553.72;;;2.58;100.00
8280;BME280;8335;42.646;23.380;2022-12-15T05:23:29;93567.72;;;2.64;100.00
8280;BME280;8335;42.646;23.380;2022-12-15T05:26:13;93572.75;;;2.64;100.00
8280;BME280;8335;42.646;23.380;2022-12-15T05:28:57;93589.31;;;2.69;100.00
8280;BME280;8335;42.646;23.380;2022-12-15T05:31:41;93593.78;;;2.61;100.00
8280;BME280;8335;42.646;23.380;2022-12-15T05:34:21;93590.19;;;2.68;100.00
8280;BME280;8335;42.646;23.380;2022-12-15T05:36:48;93598.19;;;2.78;100.00
8280;BME280;8335;42.646;23.380;2022-12-15T05:39:15;93613.34;;;2.76;100.00
8280;BME280;8335;42.646;23.380;2022-12-15T05:41:42;93622.50;;;2.79;100.00
8280;BME280;8335;42.646;23.380;2022-12-15T05:44:09;93629.84;;;2.84;100.00
8280;BME280;8335;42.646;23.380;2022-12-15T05:46:36;93636.50;;;2.85;100.00
8280;BME280;8335;42.646;23.380;2022-12-15T05:49:03;93638.09;;;2.87;100.00
8280;BME280;8335;42.646;23.380;2022-12-15T05:51:31;93654.00;;;2.88;100.00
8280;BME280;8335;42.646;23.380;2022-12-15T05:53:58;93654.72;;;2.91;100.00
8280;BME280;8335;42.646;23.380;2022-12-15T05:56:26;93653.00;;;2.92;100.00
8280;BME280;8335;42.646;23.380;2022-12-15T05:58:54;93674.75;;;2.93;100.00
8280;BME280;8335;42.646;23.380;2022-12-15T06:01:22;93677.34;;;2.91;100.00
8280;BME280;8335;42.646;23.380;2022-12-15T06:03:49;93682.38;;;2.91;100.00
8280;BME280;8335;42.646;23.380;2022-12-15T06:06:16;93682.31;;;2.93;100.00
8280;BME280;8335;42.646;23.380;2022-12-15T06:08:44;93709.13;;;2.94;100.00
8280;BME280;8335;42.646;23.380;2022-12-15T06:11:12;93703.25;;;2.93;100.00
8280;BME280;8335;42.646;23.380;2022-12-15T06:13:40;93683.56;;;2.81;100.00
8280;BME280;8335;42.646;23.380;2022-12-15T06:16:11;93703.28;;;2.92;100.00
8280;BME280;8335;42.646;23.380;2022-12-15T06:18:39;93706.53;;;2.95;100.00
8280;BME280;8335;42.646;23.380;2022-12-15T06:21:08;93711.66;;;2.92;100.00
8280;BME280;8335;42.646;23.380;2022-12-15T06:23:37;93619.72;;;2.38;100.00
8280;BME280;8335;42.646;23.380;2022-12-15T06:26:11;93710.97;;;2.89;100.00
8280;BME280;8335;42.646;23.380;2022-12-15T06:28:38;93714.22;;;2.91;100.00
8280;BME280;8335;42.646;23.380;2022-12-15T06:31:07;93703.28;;;2.92;100.00
8280;BME280;8335;42.646;23.380;2022-12-15T06:33:35;93725.44;;;3.06;100.00
8280;BME280;8335;42.646;23.380;2022-12-15T06:36:03;93731.19;;;3.09;100.00
8280;BME280;8335;42.646;23.380;2022-12-15T06:38:30;93735.19;;;3.15;100.00
8280;BME280;8335;42.646;23.380;2022-12-15T06:40:59;93732.34;;;3.24;100.00
8280;BME280;8335;42.646;23.380;2022-12-15T06:43:28;93743.09;;;3.27;100.00
8280;BME280;8335;42.646;23.380;2022-12-15T06:45:54;93760.63;;;3.30;100.00
8280;BME280;8335;42.646;23.380;2022-12-15T06:48:22;93746.94;;;3.38;100.00
8280;BME280;8335;42.646;23.380;2022-12-15T06:50:50;93743.63;;;3.37;100.00
8280;BME280;8335;42.646;23.380;2022-12-15T06:53:18;93754.91;;;3.49;100.00
8280;BME280;8335;42.646;23.380;2022-12-15T06:55:45;93745.38;;;3.57;100.00
8280;BME280;8335;42.646;23.380;2022-12-15T06:58:15;93752.41;;;3.72;100.00
8280;BME280;8335;42.646;23.380;2022-12-15T07:00:44;93743.47;;;3.85;100.00
8280;BME280;8335;42.646;23.380;2022-12-15T07:03:13;93750.34;;;4.26;100.00
8280;BME280;8335;42.646;23.380;2022-12-15T07:05:41;93758.44;;;4.75;100.00
8280;BME280;8335;42.646;23.380;2022-12-15T07:08:09;93770.03;;;5.19;100.00
8280;BME280;8335;42.646;23.380;2022-12-15T07:10:37;93774.38;;;5.74;100.00
8280;BME280;8335;42.646;23.380;2022-12-15T07:13:05;93780.59;;;6.23;100.00
8280;BME280;8335;42.646;23.380;2022-12-15T07:15:32;93769.47;;;6.62;100.00
8280;BME280;8335;42.646;23.380;2022-12-15T07:18:00;93798.63;;;7.21;100.00
8280;BME280;8335;42.646;23.380;2022-12-15T07:20:27;93803.22;;;7.48;100.00
8280;BME280;8335;42.646;23.380;2022-12-15T07:22:54;93796.72;;;7.75;99.96
8280;BME280;8335;42.646;23.380;2022-12-15T07:25:21;93819.41;;;8.10;96.74
8280;BME280;8335;42.646;23.380;2022-12-15T07:27:48;93812.72;;;8.24;96.35
8280;BME280;8335;42.646;23.380;2022-12-15T07:30:15;93819.44;;;8.41;94.74
8280;BME280;8335;42.646;23.380;2022-12-15T07:32:42;93820.25;;;8.58;94.25
8280;BME280;8335;42.646;23.380;2022-12-15T07:35:11;93823.09;;;8.67;93.03
8280;BME280;8335;42.646;23.380;2022-12-15T07:37:38;93828.81;;;8.71;92.84
8280;BME280;8335;42.646;23.380;2022-12-15T07:40:06;93839.97;;;8.68;92.83
8280;BME280;8335;42.646;23.380;2022-12-15T07:42:33;93831.63;;;8.66;92.92
8280;BME280;8335;42.646;23.380;2022-12-15T07:45:00;93841.19;;;8.61;92.36
8280;BME280;8335;42.646;23.380;2022-12-15T07:47:27;93839.81;;;8.55;92.32
8280;BME280;8335;42.646;23.380;2022-12-15T07:49:54;93837.53;;;8.51;92.30
8280;BME280;8335;42.646;23.380;2022-12-15T07:52:22;93838.69;;;8.45;92.67
8280;BME280;8335;42.646;23.380;2022-12-15T07:54:49;93835.72;;;8.37;92.80
8280;BME280;8335;42.646;23.380;2022-12-15T07:57:16;93828.41;;;8.31;93.36
8280;BME280;8335;42.646;23.380;2022-12-15T07:59:43;93852.22;;;8.28;92.96
8280;BME280;8335;42.646;23.380;2022-12-15T08:02:10;93857.44;;;8.25;93.32
8280;BME280;8335;42.646;23.380;2022-12-15T08:04:38;93865.56;;;8.32;94.05
8280;BME280;8335;42.646;23.380;2022-12-15T08:07:05;93853.69;;;8.33;94.50
8280;BME280;8335;42.646;23.380;2022-12-15T08:09:33;93876.63;;;8.47;94.01
8280;BME280;8335;42.646;23.380;2022-12-15T08:12:00;93867.41;;;8.46;94.79
8280;BME280;8335;42.646;23.380;2022-12-15T08:14:27;93879.59;;;8.55;94.63
8280;BME280;8335;42.646;23.380;2022-12-15T08:16:54;93869.75;;;8.49;94.05
8280;BME280;8335;42.646;23.380;2022-12-15T08:19:21;93865.91;;;8.42;93.66
8280;BME280;8335;42.646;23.380;2022-12-15T08:21:47;93867.94;;;8.35;93.35
8280;BME280;8335;42.646;23.380;2022-12-15T08:24:15;93880.19;;;8.27;93.53
8280;BME280;8335;42.646;23.380;2022-12-15T08:26:45;93876.25;;;8.21;94.26
8280;BME280;8335;42.646;23.380;2022-12-15T08:29:13;93884.94;;;8.17;95.21
8280;BME280;8335;42.646;23.380;2022-12-15T08:31:40;93897.69;;;8.16;95.01
8280;BME280;8335;42.646;23.380;2022-12-15T08:34:07;93894.81;;;8.06;94.86
8280;BME280;8335;42.646;23.380;2022-12-15T08:36:33;93897.91;;;7.95;94.67
8280;BME280;8335;42.646;23.380;2022-12-15T08:39:01;93900.41;;;7.80;95.09
8280;BME280;8335;42.646;23.380;2022-12-15T08:41:29;93893.50;;;7.66;95.74
8280;BME280;8335;42.646;23.380;2022-12-15T08:43:58;93890.53;;;7.58;96.39
8280;BME280;8335;42.646;23.380;2022-12-15T08:46:27;93902.59;;;7.53;97.21
8280;BME280;8335;42.646;23.380;2022-12-15T08:48:55;93896.41;;;7.41;98.31
8280;BME280;8335;42.646;23.380;2022-12-15T08:51:23;93889.34;;;7.30;99.38
8280;BME280;8335;42.646;23.380;2022-12-15T08:53:51;93901.38;;;7.42;99.87
8280;BME280;8335;42.646;23.380;2022-12-15T08:56:19;93901.34;;;7.44;99.53
8280;BME280;8335;42.646;23.380;2022-12-15T08:58:48;93907.44;;;7.40;98.94
8280;BME280;8335;42.646;23.380;2022-12-15T09:01:19;93904.16;;;7.38;98.71
8280;BME280;8335;42.646;23.380;2022-12-15T09:03:47;93896.13;;;7.30;98.10
8280;BME280;8335;42.646;23.380;2022-12-15T09:06:15;93895.88;;;7.17;98.59
8280;BME280;8335;42.646;23.380;2022-12-15T09:08:44;93901.97;;;7.13;98.91
8280;BME280;8335;42.646;23.380;2022-12-15T09:11:11;93897.81;;;7.12;100.00
8280;BME280;8335;42.646;23.380;2022-12-15T09:13:38;93896.72;;;7.17;99.76
8280;BME280;8335;42.646;23.380;2022-12-15T09:16:07;93903.03;;;7.26;100.00
8280;BME280;8335;42.646;23.380;2022-12-15T09:18:35;93898.06;;;7.25;100.00
8280;BME280;8335;42.646;23.380;2022-12-15T09:21:04;93892.75;;;7.12;100.00
8280;BME280;8335;42.646;23.380;2022-12-15T09:23:32;93889.16;;;6.99;100.00
8280;BME280;8335;42.646;23.380;2022-12-15T09:25:59;93892.06;;;6.91;100.00
8280;BME280;8335;42.646;23.380;2022-12-15T09:28:27;93908.34;;;6.85;100.00
8280;BME280;8335;42.646;23.380;2022-12-15T09:30:54;93895.94;;;6.98;100.00
8280;BME280;8335;42.646;23.380;2022-12-15T09:33:27;93910.19;;;7.18;100.00
8280;BME280;8335;42.646;23.380;2022-12-15T09:35:55;93908.69;;;7.31;100.00
8280;BME280;8335;42.646;23.380;2022-12-15T09:38:21;93909.22;;;7.38;100.00
8280;BME280;8335;42.646;23.380;2022-12-15T09:40:48;93903.19;;;7.23;100.00
8280;BME280;8335;42.646;23.380;2022-12-15T09:43:18;93919.56;;;7.16;100.00
8280;BME280;8335;42.646;23.380;2022-12-15T09:45:49;93906.28;;;6.94;100.00
8280;BME280;8335;42.646;23.380;2022-12-15T09:48:19;93908.75;;;6.95;100.00
8280;BME280;8335;42.646;23.380;2022-12-15T09:50:50;93912.31;;;6.91;100.00
8280;BME280;8335;42.646;23.380;2022-12-15T09:53:22;93908.13;;;6.90;100.00
8280;BME280;8335;42.646;23.380;2022-12-15T09:55:55;93913.28;;;6.88;100.00
8280;BME280;8335;42.646;23.380;2022-12-15T09:58:32;93928.31;;;6.92;100.00
8280;BME280;8335;42.646;23.380;2022-12-15T10:01:11;93910.47;;;7.12;100.00
8280;BME280;8335;42.646;23.380;2022-12-15T10:03:49;93913.69;;;7.15;100.00
8280;BME280;8335;42.646;23.380;2022-12-15T10:06:24;93907.19;;;7.27;100.00
8280;BME280;8335;42.646;23.380;2022-12-15T10:08:57;93904.81;;;7.59;100.00
8280;BME280;8335;42.646;23.380;2022-12-15T10:11:38;93900.53;;;7.77;100.00
8280;BME280;8335;42.646;23.380;2022-12-15T10:14:14;93903.06;;;7.94;100.00
8280;BME280;8335;42.646;23.380;2022-12-15T10:16:51;93910.22;;;8.19;100.00
8280;BME280;8335;42.646;23.380;2022-12-15T10:19:25;93901.75;;;8.36;99.81
8280;BME280;8335;42.646;23.380;2022-12-15T10:21:55;93902.81;;;8.47;98.40
8280;BME280;8335;42.646;23.380;2022-12-15T10:24:24;93905.94;;;8.52;98.24
8280;BME280;8335;42.646;23.380;2022-12-15T10:27:00;93901.25;;;8.29;98.36
8280;BME280;8335;42.646;23.380;2022-12-15T10:29:35;93909.28;;;8.04;99.35
8280;BME280;8335;42.646;23.380;2022-12-15T10:32:14;93918.28;;;7.77;100.00
8280;BME280;8335;42.646;23.380;2022-12-15T10:34:42;93932.19;;;7.85;99.84
8280;BME280;8335;42.646;23.380;2022-12-15T10:37:13;93920.81;;;7.94;100.00
8280;BME280;8335;42.646;23.380;2022-12-15T10:39:45;93922.03;;;8.03;99.68
8280;BME280;8335;42.646;23.380;2022-12-15T10:42:15;93933.84;;;8.19;99.17
8280;BME280;8335;42.646;23.380;2022-12-15T10:44:43;93921.84;;;8.23;99.28
8280;BME280;8335;42.646;23.380;2022-12-15T10:47:17;93933.81;;;8.04;100.00
8280;BME280;8335;42.646;23.380;2022-12-15T10:49:44;93923.59;;;8.05;100.00
8280;BME280;8335;42.646;23.380;2022-12-15T10:52:18;93926.44;;;7.99;100.00
8280;BME280;8335;42.646;23.380;2022-12-15T10:54:48;93920.84;;;8.10;100.00
8280;BME280;8335;42.646;23.380;2022-12-15T10:57:19;93924.91;;;8.12;100.00
8280;BME280;8335;42.646;23.380;2022-12-15T10:59:47;93920.25;;;8.05;100.00
8280;BME280;8335;42.646;23.380;2022-12-15T11:02:26;93914.88;;;8.11;99.84
8280;BME280;8335;42.646;23.380;2022-12-15T11:04:54;93925.88;;;7.94;100.00
8280;BME280;8335;42.646;23.380;2022-12-15T11:07:21;93930.66;;;7.83;100.00
8280;BME280;8335;42.646;23.380;2022-12-15T11:09:57;93918.66;;;7.86;100.00
8280;BME280;8335;42.646;23.380;2022-12-15T11:12:29;93898.78;;;7.79;100.00
8280;BME280;8335;42.646;23.380;2022-12-15T11:15:47;93913.72;;;7.83;100.00
8280;BME280;8335;42.646;23.380;2022-12-15T11:18:31;93914.78;;;7.79;100.00
8280;BME280;8335;42.646;23.380;2022-12-15T11:21:03;93904.56;;;7.63;100.00
8280;BME280;8335;42.646;23.380;2022-12-15T11:23:44;93915.59;;;7.80;100.00
8280;BME280;8335;42.646;23.380;2022-12-15T11:26:21;93920.81;;;7.94;100.00
8280;BME280;8335;42.646;23.380;2022-12-15T11:28:55;93874.63;;;7.71;100.00
8280;BME280;8335;42.646;23.380;2022-12-15T11:31:28;93918.78;;;8.00;100.00
8280;BME280;8335;42.646;23.380;2022-12-15T11:33:57;93921.53;;;7.96;100.00
8280;BME280;8335;42.646;23.380;2022-12-15T11:36:39;93923.13;;;8.14;100.00
8280;BME280;8335;42.646;23.380;2022-12-15T11:39:18;93928.59;;;8.40;100.00
8280;BME280;8335;42.646;23.380;2022-12-15T11:41:53;93923.94;;;8.64;100.00
8280;BME280;8335;42.646;23.380;2022-12-15T11:44:26;93923.84;;;8.97;99.82
8280;BME280;8335;42.646;23.380;2022-12-15T11:47:05;93938.78;;;9.33;99.14
8280;BME280;8335;42.646;23.380;2022-12-15T11:49:49;93935.28;;;9.50;98.13
8280;BME280;8335;42.646;23.380;2022-12-15T11:52:32;93940.72;;;9.74;97.00
8280;BME280;8335;42.646;23.380;2022-12-15T11:55:05;93934.81;;;9.73;96.56
8280;BME280;8335;42.646;23.380;2022-12-15T11:57:58;93949.19;;;9.88;96.62
8280;BME280;8335;42.646;23.380;2022-12-15T12:00:33;93930.38;;;9.91;95.62
8280;BME280;8335;42.646;23.380;2022-12-15T12:03:17;93946.91;;;9.84;94.92
8280;BME280;8335;42.646;23.380;2022-12-15T12:05:58;93938.53;;;9.68;95.42
8280;BME280;8335;42.646;23.380;2022-12-15T12:08:48;93945.94;;;9.56;96.34
8280;BME280;8335;42.646;23.380;2022-12-15T12:11:19;93923.25;;;9.23;96.95
8280;BME280;8335;42.646;23.380;2022-12-15T12:14:06;93954.28;;;9.28;97.31
8280;BME280;8335;42.646;23.380;2022-12-15T12:16:39;93946.44;;;9.17;97.93
8280;BME280;8335;42.646;23.380;2022-12-15T12:19:14;93949.63;;;9.21;97.90
8280;BME280;8335;42.646;23.380;2022-12-15T12:21:46;93956.59;;;9.17;98.31
8280;BME280;8335;42.646;23.380;2022-12-15T12:24:18;93948.84;;;8.89;98.80
8280;BME280;8335;42.646;23.380;2022-12-15T12:26:52;93948.59;;;8.77;99.57
8280;BME280;8335;42.646;23.380;2022-12-15T12:29:28;93964.22;;;8.54;100.00
8280;BME280;8335;42.646;23.380;2022-12-15T12:32:03;93968.38;;;8.55;100.00
8280;BME280;8335;42.646;23.380;2022-12-15T12:34:41;93974.53;;;8.51;100.00
8280;BME280;8335;42.646;23.380;2022-12-15T12:37:19;93974.44;;;8.37;100.00
8280;BME280;8335;42.646;23.380;2022-12-15T12:39:48;93975.75;;;8.26;100.00
8280;BME280;8335;42.646;23.380;2022-12-15T12:42:20;93974.84;;;8.27;100.00
8280;BME280;8335;42.646;23.380;2022-12-15T12:44:50;93978.91;;;8.14;100.00
8280;BME280;8335;42.646;23.380;2022-12-15T12:47:20;93974.69;;;8.15;100.00
8280;BME280;8335;42.646;23.380;2022-12-15T12:49:50;93992.88;;;8.06;100.00
8280;BME280;8335;42.646;23.380;2022-12-15T12:52:21;93981.75;;;8.08;100.00
8280;BME280;8335;42.646;23.380;2022-12-15T12:54:55;93992.41;;;8.15;100.00
8280;BME280;8335;42.646;23.380;2022-12-15T12:57:34;93970.84;;;8.23;100.00
8280;BME280;8335;42.646;23.380;2022-12-15T13:00:13;93990.81;;;8.30;100.00
8280;BME280;8335;42.646;23.380;2022-12-15T13:03:08;93968.97;;;8.27;100.00
8280;BME280;8335;42.646;23.380;2022-12-15T13:05:36;94000.00;;;8.32;100.00
8280;BME280;8335;42.646;23.380;2022-12-15T13:14:44;94000.38;;;8.07;100.00
8280;BME280;8335;42.646;23.380;2022-12-15T13:17:22;94001.84;;;7.95;100.00
8280;BME280;8335;42.646;23.380;2022-12-15T13:20:22;94002.34;;;8.02;100.00
8280;BME280;8335;42.646;23.380;2022-12-15T13:22:51;94001.38;;;8.05;100.00
8280;BME280;8335;42.646;23.380;2022-12-15T13:25:37;94008.16;;;8.04;100.00
8280;BME280;8335;42.646;23.380;2022-12-15T13:31:37;94011.44;;;7.89;100.00
8280;BME280;8335;42.646;23.380;2022-12-15T13:34:20;94014.38;;;7.81;100.00
8280;BME280;8335;42.646;23.380;2022-12-15T13:37:00;94013.47;;;7.65;100.00
8280;BME280;8335;42.646;23.380;2022-12-15T13:42:40;94008.44;;;7.46;100.00
8280;BME280;8335;42.646;23.380;2022-12-15T13:45:40;94018.13;;;7.38;100.00
8280;BME280;8335;42.646;23.380;2022-12-15T13:48:28;94011.63;;;7.32;100.00
8280;BME280;8335;42.646;23.380;2022-12-15T13:51:19;94017.50;;;7.33;100.00
8280;BME280;8335;42.646;23.380;2022-12-15T13:53:50;94027.84;;;7.28;100.00
8280;BME280;8335;42.646;23.380;2022-12-15T13:56:25;94025.47;;;7.25;100.00
8280;BME280;8335;42.646;23.380;2022-12-15T13:58:59;94031.31;;;7.08;100.00
8280;BME280;8335;42.646;23.380;2022-12-15T14:01:28;94019.69;;;7.04;100.00
8280;BME280;8335;42.646;23.380;2022-12-15T14:03:57;94024.66;;;7.06;100.00